Time;durP1;ratioP1;P1;durP2;ratioP2;P2;SDS_P1;SDS_P2;PMS_P1;PMS_P2;Temp;Humidity;BMP_temperature;BMP_pressure;BME280_temperature;BME280_humidity;BME280_pressure;Samples;Min_cycle;Max_cycle;Signal;HPM_P1;HPM_P2
2021/03/08 04:33:09;;;;;;;26.17;16.70;;;;;;;1.73;52.56;99172.13;7022650;23;20324;-82
2021/03/08 04:36:31;;;;;;;23.20;16.80;;;;;;;0.92;53.46;99166.34;6843156;29;20213;-82
2021/03/08 04:39:52;;;;;;;25.30;15.73;;;;;;;0.96;54.89;99181.00;6834881;28;20220;-82
2021/03/08 04:43:13;;;;;;;28.63;18.43;;;;;;;1.24;54.78;99182.06;6843609;28;20285;-83
2021/03/08 04:46:36;;;;;;;26.97;17.43;;;;;;;1.30;53.71;99192.94;6840427;28;20211;-81
2021/03/08 04:49:58;;;;;;;27.20;16.70;;;;;;;1.12;54.63;99154.78;6839845;28;20237;-81
2021/03/08 04:53:20;;;;;;;28.73;16.67;;;;;;;1.30;53.98;99187.63;6840573;28;20713;-80
2021/03/08 04:56:41;;;;;;;24.97;16.57;;;;;;;0.59;53.23;99065.84;6840095;29;20216;-82
2021/03/08 05:00:05;;;;;;;24.07;16.60;;;;;;;1.40;53.44;99193.81;6839845;29;20209;-81
2021/03/08 05:03:27;;;;;;;26.40;17.77;;;;;;;0.99;54.68;99162.16;6841018;28;20274;-80
2021/03/08 05:06:50;;;;;;;23.30;16.10;;;;;;;1.71;53.45;99199.84;6842692;28;20329;-81
2021/03/08 05:10:16;;;;;;;25.67;16.70;;;;;;;1.35;53.26;99121.66;6840359;29;20225;-81
2021/03/08 05:13:38;;;;;;;24.63;15.07;;;;;;;1.18;53.02;99203.84;6839860;29;20305;-80
2021/03/08 05:17:00;;;;;;;26.93;16.73;;;;;;;0.28;55.04;99207.41;6840597;28;20214;-80
2021/03/08 05:20:22;;;;;;;33.47;18.30;;;;;;;0.55;54.96;99194.41;6827749;28;20210;-80
2021/03/08 05:23:45;;;;;;;31.73;18.50;;;;;;;0.66;55.35;99185.53;6823838;29;20229;-80
2021/03/08 05:27:08;;;;;;;24.37;17.13;;;;;;;1.08;54.98;99202.97;6855224;28;20209;-81
2021/03/08 05:30:29;;;;;;;26.33;17.60;;;;;;;1.14;54.37;99210.41;6860182;28;20913;-81
2021/03/08 05:33:52;;;;;;;26.67;17.13;;;;;;;1.07;54.64;99218.06;6842249;28;20214;-80
2021/03/08 05:37:14;;;;;;;23.20;16.20;;;;;;;0.13;54.10;99035.59;6860989;28;20221;-80
2021/03/08 05:40:41;;;;;;;24.50;16.23;;;;;;;1.37;52.96;99202.03;6853227;28;20299;-81
2021/03/08 05:44:05;;;;;;;24.50;17.03;;;;;;;1.39;54.07;99205.41;6841110;29;20234;-80
2021/03/08 05:48:08;;;;;;;24.77;15.53;;;;;;;1.34;54.09;99204.13;6839805;29;20210;-80
2021/03/08 05:51:59;;;;;;;26.27;16.43;;;;;;;1.63;52.74;99219.13;6830633;28;20230;-79
2021/03/08 05:55:57;;;;;;;24.00;15.90;;;;;;;1.65;51.53;99221.66;6839904;29;20225;-79
2021/03/08 05:59:43;;;;;;;21.20;15.00;;;;;;;1.53;51.61;99223.59;6839600;28;20194;-79
2021/03/08 06:03:09;;;;;;;23.40;15.80;;;;;;;1.17;52.14;99226.03;6840755;29;20237;-79
2021/03/08 06:06:55;;;;;;;24.23;16.33;;;;;;;0.99;53.45;99217.06;6844373;29;20214;-80
2021/03/08 06:10:22;;;;;;;24.20;15.70;;;;;;;1.24;52.71;99220.06;6822029;29;20203;-81
2021/03/08 06:13:45;;;;;;;26.97;17.47;;;;;;;0.29;53.77;99182.56;6831315;29;20218;-80
2021/03/08 06:17:08;;;;;;;28.07;18.03;;;;;;;0.82;55.76;99213.25;6828981;29;20221;-79
2021/03/08 06:20:30;;;;;;;30.43;18.60;;;;;;;1.11;54.64;99229.25;6825168;29;20285;-81
2021/03/08 06:23:53;;;;;;;28.80;18.63;;;;;;;1.14;53.97;99219.19;6842008;29;20232;-80
2021/03/08 06:27:15;;;;;;;31.67;19.23;;;;;;;1.13;54.96;99237.94;6843487;28;20206;-79
2021/03/08 06:30:37;;;;;;;35.20;19.57;;;;;;;1.04;54.73;99191.78;6842499;28;20308;-80
2021/03/08 06:33:58;;;;;;;29.70;18.97;;;;;;;0.75;54.20;99113.91;6843288;28;20602;-79
2021/03/08 06:37:20;;;;;;;30.30;19.07;;;;;;;1.51;54.37;99238.84;6839427;28;20202;-80
2021/03/08 06:40:41;;;;;;;32.57;19.60;;;;;;;1.48;54.50;99243.59;6842698;28;20225;-79
2021/03/08 06:44:03;;;;;;;34.23;20.30;;;;;;;1.84;54.37;99245.59;6866552;28;20613;-79
2021/03/08 06:47:25;;;;;;;27.57;18.73;;;;;;;2.29;55.47;99249.31;6873364;28;20208;-80
2021/03/08 06:50:46;;;;;;;30.40;20.13;;;;;;;2.53;55.29;99245.19;6860284;28;20220;-78
2021/03/08 06:54:17;;;;;;;31.30;18.67;;;;;;;1.83;53.35;99199.53;6846249;28;20207;-80
2021/03/08 06:57:38;;;;;;;28.80;18.37;;;;;;;1.80;54.07;99254.81;6842244;29;20252;-79
2021/03/08 07:00:59;;;;;;;26.33;17.20;;;;;;;2.92;52.68;99248.56;6841176;28;20226;-80
2021/03/08 07:04:23;;;;;;;25.00;17.20;;;;;;;3.05;51.06;99241.06;6841117;29;20591;-79
2021/03/08 07:07:51;;;;;;;27.97;17.23;;;;;;;3.59;50.56;99233.88;6841365;28;20702;-79
2021/03/08 07:11:19;;;;;;;24.50;16.90;;;;;;;4.01;49.54;99240.28;6837109;28;20226;-80
2021/03/08 07:14:42;;;;;;;22.10;15.90;;;;;;;4.30;49.32;99242.72;6814246;29;20210;-80
2021/03/08 07:18:08;;;;;;;27.83;17.80;;;;;;;4.62;48.89;99249.13;6815080;29;20222;-78
2021/03/08 07:21:30;;;;;;;28.30;18.37;;;;;;;4.74;48.49;99255.88;6843793;28;20302;-78
2021/03/08 07:24:57;;;;;;;29.10;19.63;;;;;;;4.93;47.93;99231.63;6868420;28;20538;-78
2021/03/08 07:28:18;;;;;;;26.30;18.73;;;;;;;5.31;47.45;99265.03;6852955;28;20568;-78
2021/03/08 07:31:40;;;;;;;34.00;20.53;;;;;;;5.52;47.49;99263.59;6840278;28;20246;-78
2021/03/08 07:35:02;;;;;;;22.60;16.77;;;;;;;5.59;47.61;99247.72;6840249;29;20217;-78
2021/03/08 07:38:32;;;;;;;26.00;16.03;;;;;;;5.19;47.44;99247.59;6842622;29;20594;-78
2021/03/08 07:41:55;;;;;;;25.33;17.57;;;;;;;5.59;47.95;99280.66;6841451;28;20222;-78
2021/03/08 07:45:17;;;;;;;27.27;17.57;;;;;;;6.04;47.00;99281.16;6840933;28;20240;-78
2021/03/08 07:48:46;;;;;;;30.33;17.80;;;;;;;6.53;45.95;99290.03;6839916;28;20747;-79
2021/03/08 07:52:08;;;;;;;24.60;18.37;;;;;;;6.65;44.79;99277.97;6842232;29;20925;-78
2021/03/08 07:55:37;;;;;;;25.37;18.17;;;;;;;6.87;43.56;99274.59;6843926;29;20238;-79
2021/03/08 07:58:58;;;;;;;27.57;18.67;;;;;;;7.05;44.52;99294.84;6837110;28;20214;-80
2021/03/08 08:02:20;;;;;;;28.80;19.40;;;;;;;6.17;45.80;99267.25;6843799;28;20233;-81
2021/03/08 08:05:41;;;;;;;27.47;19.53;;;;;;;6.01;46.09;99222.59;6849529;28;20225;-81
2021/03/08 08:09:02;;;;;;;29.17;19.70;;;;;;;5.55;48.64;99289.19;6843005;28;20201;-81
2021/03/08 08:12:30;;;;;;;30.70;19.87;;;;;;;6.01;48.85;99291.34;6845169;28;20233;-81
2021/03/08 08:15:52;;;;;;;27.37;20.07;;;;;;;5.71;47.77;99267.84;6842340;28;20208;-80
2021/03/08 08:19:15;;;;;;;26.33;18.23;;;;;;;7.25;46.64;99287.25;6845704;29;20723;-80
2021/03/08 08:22:44;;;;;;;22.67;17.30;;;;;;;8.59;42.03;99272.38;6846424;28;20713;-80
2021/03/08 08:26:07;;;;;;;26.53;18.93;;;;;;;8.25;42.86;99272.00;6843252;28;20238;-80
2021/03/08 08:29:29;;;;;;;28.63;19.07;;;;;;;7.78;45.20;99277.44;6839277;29;20229;-80
2021/03/08 08:32:52;;;;;;;24.57;17.17;;;;;;;8.22;43.97;99265.13;6845415;29;20234;-81
2021/03/08 08:36:16;;;;;;;24.03;17.93;;;;;;;8.82;42.20;99260.59;6847822;28;20213;-80
2021/03/08 08:39:38;;;;;;;21.93;17.37;;;;;;;9.03;41.68;99283.03;6845970;29;20202;-80
2021/03/08 08:43:20;;;;;;;22.27;17.80;;;;;;;8.49;42.57;99266.44;6839621;29;20379;-80
2021/03/08 08:46:45;;;;;;;25.47;17.63;;;;;;;8.32;42.66;99259.53;6841854;29;20233;-80
2021/03/08 08:50:09;;;;;;;26.57;17.80;;;;;;;8.32;43.06;99278.31;6843187;28;20217;-80
2021/03/08 08:53:44;;;;;;;21.77;17.07;;;;;;;7.84;43.41;99273.25;6844205;29;20234;-80
2021/03/08 08:57:09;;;;;;;22.23;16.23;;;;;;;8.02;43.49;99274.63;6837549;29;20202;-79
2021/03/08 09:00:30;;;;;;;21.63;16.03;;;;;;;8.09;42.86;99262.19;6836382;28;20209;-79
2021/03/08 09:03:54;;;;;;;19.13;14.87;;;;;;;9.10;41.51;99273.22;6837908;28;20228;-79
2021/03/08 09:07:18;;;;;;;17.80;14.60;;;;;;;8.90;41.72;99240.84;6840468;28;20674;-79
2021/03/08 09:10:39;;;;;;;21.40;15.50;;;;;;;7.96;42.13;99277.19;6839539;28;20236;-80
2021/03/08 09:14:33;;;;;;;22.37;16.63;;;;;;;9.58;40.36;99261.06;6838824;28;20563;-79
2021/03/08 09:17:56;;;;;;;21.37;15.77;;;;;;;8.58;41.29;99238.47;6812781;28;20666;-79
2021/03/08 09:21:22;;;;;;;18.27;15.50;;;;;;;9.69;39.62;99266.78;6812103;29;20233;-79
2021/03/08 09:24:44;;;;;;;19.67;15.63;;;;;;;9.84;38.72;99258.69;6812499;29;20235;-79
2021/03/08 09:28:08;;;;;;;15.83;13.77;;;;;;;10.11;38.66;99268.78;6812899;29;20214;-79
2021/03/08 09:31:30;;;;;;;18.40;14.27;;;;;;;10.17;39.17;99260.75;6811792;29;20274;-79
2021/03/08 09:34:52;;;;;;;19.33;14.93;;;;;;;10.51;37.53;99260.06;6813547;29;20579;-79
2021/03/08 09:38:16;;;;;;;19.03;13.57;;;;;;;11.34;36.25;99256.31;6817941;29;20273;-79
2021/03/08 09:41:37;;;;;;;20.40;13.87;;;;;;;11.15;36.57;99277.81;6817231;28;20226;-79
2021/03/08 09:44:58;;;;;;;16.37;14.13;;;;;;;11.39;35.99;99263.84;6818693;29;20230;-80
2021/03/08 09:48:20;;;;;;;15.67;13.97;;;;;;;12.02;34.79;99258.94;6822156;29;20266;-80
2021/03/08 09:51:41;;;;;;;15.33;13.47;;;;;;;11.88;34.63;99242.91;6825835;29;20231;-80
2021/03/08 09:55:04;;;;;;;18.80;14.70;;;;;;;11.65;35.20;99255.91;6825160;29;20210;-80
2021/03/08 09:58:25;;;;;;;13.90;12.47;;;;;;;10.94;36.11;99250.88;6819234;29;20217;-79
2021/03/08 10:01:50;;;;;;;18.10;12.63;;;;;;;11.98;35.13;99259.56;6817725;29;20222;-80
2021/03/08 10:05:12;;;;;;;17.57;12.17;;;;;;;9.43;38.19;99265.59;6817693;29;20234;-80
2021/03/08 10:08:33;;;;;;;16.43;13.80;;;;;;;10.04;37.96;99228.28;6817295;29;20214;-79
2021/03/08 10:12:01;;;;;;;15.07;13.47;;;;;;;10.24;37.28;99225.78;6818311;29;20250;-79
2021/03/08 10:15:22;;;;;;;14.17;11.90;;;;;;;9.75;38.49;99243.69;6817466;29;20201;-79
2021/03/08 10:18:43;;;;;;;11.23;9.93;;;;;;;10.28;35.42;99246.75;6817658;29;20217;-79
2021/03/08 10:22:05;;;;;;;13.37;11.97;;;;;;;9.23;37.99;99226.84;6819388;29;20234;-80
2021/03/08 10:25:28;;;;;;;32.30;18.93;;;;;;;10.76;37.39;99231.66;6819299;29;20264;-79
2021/03/08 10:28:52;;;;;;;23.33;14.20;;;;;;;11.76;34.45;99212.91;6823561;29;20211;-81
2021/03/08 10:32:13;;;;;;;14.27;11.27;;;;;;;11.42;33.78;99204.03;6820775;29;20231;-81
2021/03/08 10:35:37;;;;;;;13.57;11.37;;;;;;;10.02;37.04;99229.47;6823489;28;20600;-81
2021/03/08 10:38:59;;;;;;;12.50;11.20;;;;;;;10.93;35.94;99219.53;6821574;28;20214;-80
2021/03/08 10:42:22;;;;;;;12.17;10.67;;;;;;;11.35;35.31;99231.00;6824336;29;20227;-81
2021/03/08 10:45:48;;;;;;;14.87;11.50;;;;;;;13.03;31.80;99237.84;6840827;23;20236;-71
2021/03/08 10:49:10;;;;;;;14.37;12.87;;;;;;;12.26;33.95;99217.00;6809859;29;20223;-71
2021/03/08 10:52:31;;;;;;;12.57;10.67;;;;;;;13.80;31.83;99199.94;6811133;29;20214;-71
2021/03/08 10:55:53;;;;;;;13.27;11.80;;;;;;;13.57;32.39;99219.38;6810523;29;20616;-72
2021/03/08 10:59:25;;;;;;;62.17;26.00;;;;;;;13.46;31.21;99224.66;6809606;29;20217;-72
2021/03/08 11:02:48;;;;;;;54.60;27.40;;;;;;;12.60;32.94;99178.94;6810268;29;20222;-71
2021/03/08 11:06:10;;;;;;;18.07;13.30;;;;;;;13.01;32.50;99179.56;6810143;29;20211;-71
2021/03/08 11:09:32;;;;;;;21.40;13.37;;;;;;;12.44;33.83;99215.34;6809373;29;20207;-72
2021/03/08 11:12:59;;;;;;;13.97;10.90;;;;;;;13.13;32.36;99172.44;6810194;29;20215;-71
2021/03/08 11:16:21;;;;;;;12.07;10.87;;;;;;;13.52;30.15;99210.25;6810121;29;20791;-71
2021/03/08 11:19:43;;;;;;;14.57;10.67;;;;;;;12.60;30.96;99177.09;6809352;29;20254;-71
2021/03/08 11:23:05;;;;;;;11.57;10.37;;;;;;;13.50;31.15;99209.63;6809532;29;20237;-71
2021/03/08 11:26:26;;;;;;;11.77;10.57;;;;;;;14.01;30.88;99215.84;6809424;29;20237;-72
2021/03/08 11:30:03;;;;;;;15.63;12.23;;;;;;;13.62;31.88;99200.63;6808846;29;20273;-71
2021/03/08 11:33:24;;;;;;;17.07;12.10;;;;;;;14.24;30.31;99192.59;6809674;29;20611;-71
2021/03/08 11:36:47;;;;;;;15.23;12.00;;;;;;;13.87;31.13;99200.72;6809865;29;20211;-71
2021/03/08 11:40:09;;;;;;;17.67;12.20;;;;;;;13.77;31.44;99184.91;6810065;29;20263;-78
2021/03/08 11:43:32;;;;;;;10.97;9.87;;;;;;;12.84;32.41;99205.34;6810146;29;20231;-73
2021/03/08 11:46:53;;;;;;;11.57;10.03;;;;;;;13.99;29.87;99182.72;6810345;29;20220;-73
2021/03/08 11:50:14;;;;;;;10.80;9.77;;;;;;;14.11;29.82;99191.81;6809991;29;20213;-73
2021/03/08 11:53:37;;;;;;;11.37;10.17;;;;;;;14.71;28.50;99199.31;6810103;29;20756;-73
2021/03/08 11:56:58;;;;;;;12.13;9.73;;;;;;;15.07;28.81;99143.22;6810254;29;20661;-71
2021/03/08 12:00:21;;;;;;;12.33;10.10;;;;;;;15.58;27.89;99175.47;6808126;29;20210;-72
2021/03/08 12:03:43;;;;;;;13.60;11.23;;;;;;;14.24;29.33;99126.66;6819401;29;20241;-72
2021/03/08 12:07:04;;;;;;;11.63;9.93;;;;;;;14.78;28.03;99164.81;6814760;29;20206;-71
2021/03/08 12:10:30;;;;;;;12.70;10.53;;;;;;;14.15;30.23;99183.03;6834685;28;20299;-71
2021/03/08 12:13:52;;;;;;;13.63;11.27;;;;;;;14.43;29.76;99131.94;6835490;29;20209;-73
2021/03/08 12:17:13;;;;;;;12.07;10.20;;;;;;;14.77;28.78;99133.28;6835221;28;20205;-73
2021/03/08 12:20:34;;;;;;;11.60;10.40;;;;;;;14.15;29.79;99155.09;6835164;29;20636;-72
2021/03/08 12:23:57;;;;;;;12.07;10.83;;;;;;;14.63;28.55;99156.19;6835688;28;20236;-72
2021/03/08 12:27:19;;;;;;;12.17;10.53;;;;;;;14.43;28.87;99147.38;6834669;28;20211;-72
2021/03/08 12:30:40;;;;;;;12.80;10.03;;;;;;;13.85;28.23;99116.91;6833834;29;20211;-72
2021/03/08 12:34:02;;;;;;;10.93;9.80;;;;;;;12.37;30.24;99092.84;6835365;28;20341;-72
2021/03/08 12:37:23;;;;;;;10.40;9.30;;;;;;;13.52;29.65;99129.78;6835180;28;20574;-72
2021/03/08 12:40:45;;;;;;;11.70;10.50;;;;;;;13.07;29.21;99122.72;6834092;28;20246;-72
2021/03/08 12:44:08;;;;;;;10.93;9.60;;;;;;;12.65;29.81;99120.50;6834922;29;20236;-72
2021/03/08 12:47:29;;;;;;;10.60;9.47;;;;;;;13.62;28.99;99142.91;6834658;28;20214;-72
2021/03/08 12:50:51;;;;;;;10.43;9.33;;;;;;;13.84;29.34;99131.50;6834247;28;20377;-72
2021/03/08 12:54:13;;;;;;;10.43;9.30;;;;;;;12.75;29.42;99047.81;6834793;28;20727;-72
2021/03/08 12:57:34;;;;;;;11.07;9.23;;;;;;;11.64;30.17;99048.97;6834090;28;20249;-72
2021/03/08 13:00:57;;;;;;;9.80;8.50;;;;;;;13.05;29.31;99118.56;6833614;28;20221;-71
2021/03/08 13:04:18;;;;;;;11.47;8.27;;;;;;;12.31;29.37;99111.75;6834262;28;20698;-72
2021/03/08 13:07:39;;;;;;;9.20;8.30;;;;;;;12.02;29.93;99118.44;6834915;29;20213;-72
2021/03/08 13:11:01;;;;;;;8.87;7.97;;;;;;;12.70;29.23;99117.16;6837927;28;20340;-72
2021/03/08 13:14:22;;;;;;;8.67;7.57;;;;;;;13.72;28.32;99110.72;6839682;29;20612;-71
2021/03/08 13:17:45;;;;;;;9.93;7.63;;;;;;;13.92;28.38;99103.31;6814909;29;20207;-73
2021/03/08 13:21:06;;;;;;;9.90;7.60;;;;;;;14.06;28.45;99107.59;6814163;29;20326;-72
2021/03/08 13:24:27;;;;;;;8.90;7.83;;;;;;;14.82;27.32;99076.44;6814433;29;20229;-73
2021/03/08 13:27:49;;;;;;;9.53;7.17;;;;;;;14.14;25.31;99036.81;6815072;29;20209;-72
2021/03/08 13:31:10;;;;;;;8.67;7.73;;;;;;;13.94;26.04;99036.16;6814384;29;20641;-73
2021/03/08 13:34:33;;;;;;;8.03;7.23;;;;;;;12.92;27.60;99077.97;6814456;28;20702;-71
2021/03/08 13:37:54;;;;;;;10.57;8.03;;;;;;;13.73;26.44;99101.53;6814796;29;20374;-79
2021/03/08 13:41:16;;;;;;;9.00;7.63;;;;;;;14.39;25.98;99079.16;6813904;29;20300;-72
2021/03/08 13:44:37;;;;;;;7.67;6.90;;;;;;;15.08;25.13;99084.28;6834577;29;20232;-73
2021/03/08 13:47:58;;;;;;;8.20;7.40;;;;;;;15.30;24.68;99080.03;6840228;29;20235;-73
2021/03/08 13:51:21;;;;;;;8.73;7.77;;;;;;;12.59;26.99;99058.28;6839671;29;20213;-72
2021/03/08 13:54:42;;;;;;;7.67;6.87;;;;;;;13.23;26.72;99069.94;6841195;28;20277;-75
2021/03/08 13:58:06;;;;;;;7.97;7.17;;;;;;;14.31;25.50;99054.22;6841061;28;20216;-72
2021/03/08 14:01:30;;;;;;;8.40;7.03;;;;;;;13.76;26.12;99071.31;6840375;28;20739;-71
2021/03/08 14:04:57;;;;;;;8.50;7.23;;;;;;;13.54;26.32;99080.81;6841401;28;20380;-71
2021/03/08 14:08:22;;;;;;;8.17;6.83;;;;;;;13.96;25.60;99072.84;6840330;29;20232;-71
2021/03/08 14:11:49;;;;;;;7.63;6.83;;;;;;;14.25;25.35;99076.78;6839458;29;20223;-72
2021/03/08 14:15:26;;;;;;;8.13;6.80;;;;;;;14.22;25.72;99060.97;6839290;28;20730;-71
2021/03/08 14:18:50;;;;;;;8.40;7.57;;;;;;;14.03;25.49;99072.75;6839646;28;20300;-72
2021/03/08 14:22:15;;;;;;;10.63;7.60;;;;;;;14.09;25.76;99070.00;6838568;28;20223;-72
2021/03/08 14:26:04;;;;;;;8.23;7.43;;;;;;;13.90;25.42;99060.16;6840042;28;20706;-72
2021/03/08 14:29:52;;;;;;;8.57;7.20;;;;;;;14.69;25.36;99058.41;6839067;28;20200;-73
2021/03/08 14:33:16;;;;;;;8.67;7.00;;;;;;;14.50;24.67;98966.34;6834007;28;20200;-72
2021/03/08 14:36:37;;;;;;;6.57;5.97;;;;;;;15.06;24.19;99038.38;6838042;28;20251;-72
2021/03/08 14:40:00;;;;;;;7.57;6.80;;;;;;;14.73;24.25;99037.06;6838693;29;20212;-72
2021/03/08 14:43:25;;;;;;;8.97;7.00;;;;;;;14.61;24.82;99034.28;6838723;28;20273;-72
2021/03/08 14:46:49;;;;;;;8.73;7.00;;;;;;;14.05;25.52;99040.84;6837893;28;20220;-73
2021/03/08 14:50:11;;;;;;;8.50;6.97;;;;;;;14.63;24.46;99018.59;6838335;28;20211;-72
2021/03/08 14:53:36;;;;;;;9.37;7.03;;;;;;;12.83;26.52;99025.13;6838906;28;20662;-72
2021/03/08 14:57:00;;;;;;;7.70;6.67;;;;;;;13.56;25.43;99035.38;6839215;28;20219;-73
2021/03/08 15:00:23;;;;;;;7.30;6.53;;;;;;;13.69;25.58;99044.25;6836620;28;20698;-72
2021/03/08 15:04:11;;;;;;;;;;;;;;;;;;;;;
2021/03/08 15:07:50;;;;;;;7.23;6.53;;;;;;;14.45;24.42;99028.63;6828266;28;20208;-75
2021/03/08 15:11:13;;;;;;;8.67;7.00;;;;;;;14.05;24.98;99028.13;6825368;28;20288;-73
2021/03/08 15:14:38;;;;;;;9.13;6.40;;;;;;;14.16;24.87;99027.41;6834002;28;20226;-73
2021/03/08 15:18:00;;;;;;;11.23;8.73;;;;;;;14.55;24.61;99020.78;6838308;28;20215;-76
2021/03/08 15:21:21;;;;;;;7.27;6.57;;;;;;;13.64;24.53;99025.09;6838379;28;20716;-72
2021/03/08 15:24:43;;;;;;;6.87;6.10;;;;;;;14.07;23.89;99022.47;6838703;28;20233;-74
2021/03/08 15:28:08;;;;;;;9.60;6.47;;;;;;;14.07;23.80;99014.34;6838238;28;20205;-75
2021/03/08 15:31:29;;;;;;;8.57;6.97;;;;;;;13.93;24.15;99024.47;6837743;28;20209;-71
2021/03/08 15:34:51;;;;;;;8.77;5.77;;;;;;;13.49;25.00;99029.16;6834940;28;20204;-71
2021/03/08 15:38:12;;;;;;;6.53;5.53;;;;;;;13.29;25.06;99023.06;6838172;29;20234;-73
2021/03/08 15:41:34;;;;;;;7.03;5.87;;;;;;;13.14;25.16;99017.09;6837508;28;20215;-71
2021/03/08 15:44:55;;;;;;;5.97;5.47;;;;;;;13.67;25.01;99011.13;6820025;28;20230;-72
2021/03/08 15:48:16;;;;;;;6.73;5.90;;;;;;;13.44;24.84;99019.00;6829412;28;20549;-72
2021/03/08 15:51:38;;;;;;;8.17;5.50;;;;;;;13.12;25.00;99021.91;6830882;28;20594;-72
2021/03/08 15:55:01;;;;;;;6.70;5.97;;;;;;;13.90;24.71;99021.38;6829328;29;20210;-72
2021/03/08 15:58:23;;;;;;;8.00;5.73;;;;;;;13.61;24.59;99016.59;6838317;28;20213;-72
2021/03/08 16:01:44;;;;;;;6.47;5.80;;;;;;;13.10;25.31;99013.16;6836318;28;20205;-73
2021/03/08 16:05:31;;;;;;;7.57;5.90;;;;;;;12.85;25.94;99012.19;6859342;28;20229;-71
2021/03/08 16:17:18;;;;;;;4.80;4.37;;;;;;;13.12;26.77;99008.34;6694071;29;20230;-71
2021/03/08 16:20:57;;;;;;;4.40;4.00;;;;;;;12.66;27.16;99026.63;6776990;29;20262;-72
2021/03/08 16:25:20;;;;;;;4.40;4.00;;;;;;;12.29;27.88;99025.47;6778377;29;20229;-72
2021/03/08 16:32:36;;;;;;;5.23;4.23;;;;;;;13.43;26.12;99030.88;6779585;29;20654;-73
2021/03/08 16:35:58;;;;;;;5.70;3.97;;;;;;;12.92;26.92;99000.28;6779933;29;20215;-71
2021/03/08 16:39:19;;;;;;;4.70;4.20;;;;;;;13.26;26.96;99028.88;6779219;29;20227;-72
2021/03/08 16:42:40;;;;;;;5.27;4.13;;;;;;;13.47;26.99;99006.91;6796600;29;20214;-73
2021/03/08 16:46:03;;;;;;;4.10;3.43;;;;;;;13.27;27.46;99022.44;6828495;28;20582;-74
2021/03/08 16:49:26;;;;;;;6.67;5.00;;;;;;;12.40;28.47;99029.41;6808456;29;20213;-73
2021/03/08 16:53:01;;;;;;;5.80;4.27;;;;;;;11.85;29.42;99013.63;6817268;29;20211;-73
2021/03/08 16:56:27;;;;;;;4.70;4.20;;;;;;;12.37;29.31;99027.94;6834029;29;20198;-74
2021/03/08 16:59:50;;;;;;;4.60;4.20;;;;;;;12.86;28.31;99028.22;6834674;28;20296;-73
2021/03/08 17:03:12;;;;;;;5.27;4.60;;;;;;;12.78;28.85;99022.22;6834966;28;20218;-74
2021/03/08 17:06:34;;;;;;;4.77;4.27;;;;;;;12.63;28.61;99030.59;6835462;28;20229;-74
2021/03/08 17:09:55;;;;;;;5.23;4.07;;;;;;;12.85;28.82;99039.25;6814754;28;20276;-75
2021/03/08 17:13:16;;;;;;;6.20;4.80;;;;;;;12.73;28.99;99024.72;6824243;28;20577;-73
2021/03/08 17:16:50;;;;;;;10.60;6.27;;;;;;;12.13;30.58;99042.13;6827995;28;20207;-76
2021/03/08 17:28:47;;;;;;;7.43;4.90;;;;;;;12.19;30.93;99054.81;6816643;28;20273;-76
2021/03/08 17:32:08;;;;;;;6.17;4.70;;;;;;;11.93;31.66;99056.69;6836565;28;20217;-76
2021/03/08 17:36:18;;;;;;;5.63;4.83;;;;;;;11.69;32.57;99054.59;6832271;28;20205;-76
2021/03/08 17:44:21;;;;;;;7.87;5.70;;;;;;;11.23;33.35;99067.13;6763647;29;20262;-76
2021/03/08 17:47:42;;;;;;;7.30;5.43;;;;;;;11.05;33.51;99074.94;6786880;28;20205;-78
2021/03/08 17:51:04;;;;;;;7.40;5.63;;;;;;;10.63;34.24;99073.28;6837847;28;20227;-75
2021/03/08 17:54:25;;;;;;;7.13;5.90;;;;;;;10.33;35.04;99077.22;6834404;29;20218;-77
2021/03/08 17:57:47;;;;;;;10.53;6.50;;;;;;;9.34;36.68;99097.22;6829451;29;20209;-77
2021/03/08 18:01:09;;;;;;;7.47;6.60;;;;;;;9.48;36.63;99053.28;6840342;29;20198;-78
2021/03/08 18:04:32;;;;;;;6.90;6.20;;;;;;;9.16;37.39;99103.00;6840559;28;20588;-76
2021/03/08 18:07:53;;;;;;;8.27;6.77;;;;;;;9.19;37.87;99109.88;6856604;28;20289;-76
2021/03/08 18:11:14;;;;;;;8.47;6.53;;;;;;;8.86;38.35;99105.09;6856352;28;20212;-79
2021/03/08 18:14:35;;;;;;;8.17;6.17;;;;;;;8.86;38.65;99107.78;6844862;29;20202;-74
2021/03/08 18:17:58;;;;;;;6.93;6.07;;;;;;;8.01;39.18;99020.56;6841100;28;20213;-77
2021/03/08 18:21:19;;;;;;;9.63;6.53;;;;;;;8.22;39.58;99074.44;6840808;29;20202;-77
2021/03/08 18:24:41;;;;;;;8.63;6.17;;;;;;;8.36;39.09;99032.50;6839776;29;20222;-75
2021/03/08 18:28:02;;;;;;;11.33;6.50;;;;;;;9.07;38.96;99122.13;6835857;28;20210;-77
2021/03/08 18:31:27;;;;;;;6.80;6.10;;;;;;;9.30;39.25;99122.84;6840331;29;20201;-75
2021/03/08 18:34:49;;;;;;;8.00;6.23;;;;;;;9.42;38.71;99124.00;6840163;28;20212;-75
2021/03/08 18:38:16;;;;;;;12.00;7.10;;;;;;;9.07;39.04;99113.25;6840395;28;20237;-75
2021/03/08 18:41:38;;;;;;;10.40;8.13;;;;;;;8.95;39.56;99101.31;6840181;28;20228;-76
2021/03/08 18:44:59;;;;;;;11.30;7.73;;;;;;;8.88;39.51;99097.69;6839656;29;20231;-75
2021/03/08 18:48:20;;;;;;;12.43;7.03;;;;;;;8.89;39.66;99094.00;6839983;28;20220;-76
2021/03/08 18:51:43;;;;;;;9.40;7.20;;;;;;;8.41;39.62;99132.16;6839889;28;20291;-75
2021/03/08 18:55:07;;;;;;;13.87;8.03;;;;;;;8.49;40.14;99116.78;6838814;28;20236;-74
2021/03/08 18:58:31;;;;;;;9.87;7.50;;;;;;;7.84;40.67;99062.00;6833940;28;20209;-74
2021/03/08 19:01:52;;;;;;;10.37;7.20;;;;;;;7.99;40.77;99119.25;6857557;28;20230;-75
2021/03/08 19:05:14;;;;;;;9.70;6.43;;;;;;;7.86;40.44;99094.03;6837466;28;20302;-76
2021/03/08 19:08:37;;;;;;;10.00;7.57;;;;;;;7.60;41.49;99099.78;6845135;28;20206;-75
2021/03/08 19:11:58;;;;;;;10.57;6.97;;;;;;;6.96;42.90;99100.19;6850014;28;20567;-75
2021/03/08 19:15:22;;;;;;;11.00;8.73;;;;;;;7.30;42.43;99130.16;6843487;28;20205;-76
2021/03/08 19:18:43;;;;;;;12.93;9.40;;;;;;;7.02;43.05;99080.72;6838151;28;20213;-76
2021/03/08 19:22:05;;;;;;;13.77;9.20;;;;;;;7.93;41.16;99119.13;6838085;28;20210;-76
2021/03/08 19:25:27;;;;;;;11.80;8.30;;;;;;;7.57;41.29;99118.94;6856141;28;20225;-76
2021/03/08 19:28:48;;;;;;;17.60;10.70;;;;;;;6.61;43.11;99089.94;6861411;28;20219;-76
2021/03/08 19:32:09;;;;;;;11.20;8.30;;;;;;;6.68;42.39;99072.19;6855727;28;20575;-76
2021/03/08 19:35:31;;;;;;;14.67;9.47;;;;;;;6.42;43.57;99081.50;6831402;28;20563;-76
2021/03/08 19:38:52;;;;;;;11.63;8.47;;;;;;;6.51;43.48;99101.88;6833057;28;20202;-76
2021/03/08 19:42:15;;;;;;;11.40;7.20;;;;;;;6.02;43.39;99041.44;6825961;28;20313;-74
2021/03/08 19:45:36;;;;;;;14.57;7.73;;;;;;;5.94;44.44;99076.22;6837964;28;20227;-74
2021/03/08 19:48:57;;;;;;;13.00;7.87;;;;;;;6.35;44.35;99132.22;6838283;28;20293;-74
2021/03/08 19:52:19;;;;;;;15.17;9.10;;;;;;;6.53;43.71;99106.06;6838809;29;20235;-74
2021/03/08 19:55:40;;;;;;;11.43;7.97;;;;;;;5.88;45.11;99115.22;6837784;28;20208;-75
2021/03/08 19:59:03;;;;;;;12.30;7.57;;;;;;;6.01;44.55;99096.00;6838268;29;20228;-75
2021/03/08 20:02:24;;;;;;;10.87;7.47;;;;;;;5.84;44.38;99052.34;6837955;29;20268;-75
2021/03/08 20:05:46;;;;;;;11.30;7.03;;;;;;;5.97;44.84;99116.91;6838280;29;20606;-75
2021/03/08 20:09:07;;;;;;;10.80;7.07;;;;;;;6.33;43.94;99120.84;6838521;29;20230;-75
2021/03/08 20:12:30;;;;;;;7.80;6.90;;;;;;;6.38;43.64;99126.50;6838114;28;20208;-75
2021/03/08 20:15:52;;;;;;;10.63;6.87;;;;;;;6.07;43.89;99081.94;6836566;28;20212;-75
2021/03/08 20:19:14;;;;;;;9.20;6.93;;;;;;;6.10;45.15;99122.56;6833840;28;20624;-79
2021/03/08 20:22:37;;;;;;;8.87;7.13;;;;;;;6.18;44.63;99111.03;6820732;29;20213;-75
2021/03/08 20:25:59;;;;;;;8.50;7.07;;;;;;;5.61;45.14;99055.84;6837219;29;20668;-76
2021/03/08 20:29:20;;;;;;;8.23;7.07;;;;;;;5.24;45.69;99026.94;6838089;28;20670;-73
2021/03/08 20:32:42;;;;;;;9.97;6.77;;;;;;;5.67;44.91;99058.66;6837994;28;20234;-75
2021/03/08 20:36:05;;;;;;;7.83;6.70;;;;;;;6.04;45.25;99125.06;6837767;28;20212;-76
2021/03/08 20:39:27;;;;;;;9.10;6.60;;;;;;;5.36;45.87;99056.84;6836957;28;20204;-76
2021/03/08 20:42:48;;;;;;;9.93;7.33;;;;;;;5.66;46.20;99107.81;6837648;28;20240;-75
2021/03/08 20:46:09;;;;;;;9.57;7.13;;;;;;;5.42;46.44;99123.03;6836390;29;20232;-75
2021/03/08 20:49:32;;;;;;;8.00;7.20;;;;;;;4.95;46.81;99041.78;6838602;29;20300;-76
2021/03/08 20:52:53;;;;;;;10.57;7.30;;;;;;;5.16;47.70;99143.69;6837553;28;20209;-76